sensor_id;sensor_type;location;lat;lon;timestamp;pressure;altitude;pressure_sealevel;temperature;humidity
5350;BME280;2697;42.144;24.794;2023-03-05T00:00:09;-19295.41;;;5.72;100.00
5350;BME280;2697;42.144;24.794;2023-03-05T00:02:34;-19299.59;;;5.86;100.00
5350;BME280;2697;42.144;24.794;2023-03-05T00:05:00;-19300.50;;;5.89;100.00
5350;BME280;2697;42.144;24.794;2023-03-05T00:07:25;-19299.59;;;5.86;100.00
5350;BME280;2697;42.144;24.794;2023-03-05T00:09:50;-19294.50;;;5.69;100.00
5350;BME280;2697;42.144;24.794;2023-03-05T00:12:16;-19291.78;;;5.60;100.00
5350;BME280;2697;42.144;24.794;2023-03-05T00:14:41;-19291.03;;;5.57;100.00
5350;BME280;2697;42.144;24.794;2023-03-05T00:17:06;-19289.38;;;5.52;100.00
5350;BME280;2697;42.144;24.794;2023-03-05T00:19:32;-19290.88;;;5.57;100.00
5350;BME280;2697;42.144;24.794;2023-03-05T00:21:57;-19289.69;;;5.53;100.00
5350;BME280;2697;42.144;24.794;2023-03-05T00:24:23;-19292.38;;;5.62;100.00
5350;BME280;2697;42.144;24.794;2023-03-05T00:26:48;-19295.53;;;5.72;100.00
5350;BME280;2697;42.144;24.794;2023-03-05T00:29:16;-19299.00;;;5.84;100.00
5350;BME280;2697;42.144;24.794;2023-03-05T00:31:46;-19297.81;;;5.80;100.00
5350;BME280;2697;42.144;24.794;2023-03-05T00:34:14;-19298.09;;;5.81;100.00
5350;BME280;2697;42.144;24.794;2023-03-05T00:36:43;-19295.69;;;5.73;100.00
5350;BME280;2697;42.144;24.794;2023-03-05T00:39:10;-19289.25;;;5.58;100.00
5350;BME280;2697;42.144;24.794;2023-03-05T00:41:35;-19288.50;;;5.55;100.00
5350;BME280;2697;42.144;24.794;2023-03-05T00:44:01;-19297.94;;;5.81;100.00
5350;BME280;2697;42.144;24.794;2023-03-05T00:46:26;-19298.72;;;5.90;100.00
5350;BME280;2697;42.144;24.794;2023-03-05T00:48:55;-18968.00;;;5.92;100.00
5350;BME280;2697;42.144;24.794;2023-03-05T00:51:22;-17973.78;;;5.91;100.00
5350;BME280;2697;42.144;24.794;2023-03-05T00:53:48;-16315.63;;;5.88;100.00
5350;BME280;2697;42.144;24.794;2023-03-05T00:56:14;-15983.97;;;5.88;100.00
5350;BME280;2697;42.144;24.794;2023-03-05T00:58:39;-14987.91;;;5.82;100.00
5350;BME280;2697;42.144;24.794;2023-03-05T01:01:05;-14654.69;;;5.75;100.00
5350;BME280;2697;42.144;24.794;2023-03-05T01:03:32;-13986.94;;;5.54;100.00
5350;BME280;2697;42.144;24.794;2023-03-05T01:05:59;-13317.22;;;5.21;100.00
5350;BME280;2697;42.144;24.794;2023-03-05T01:08:25;-13647.19;;;5.13;100.00
5350;BME280;2697;42.144;24.794;2023-03-05T01:10:50;-13645.41;;;5.05;100.00
5350;BME280;2697;42.144;24.794;2023-03-05T01:13:16;-13973.94;;;4.92;100.00
5350;BME280;2697;42.144;24.794;2023-03-05T01:15:41;-14967.69;;;4.93;100.00
5350;BME280;2697;42.144;24.794;2023-03-05T01:18:07;-15962.44;;;4.99;100.00
5350;BME280;2697;42.144;24.794;2023-03-05T01:20:32;-15960.94;;;4.93;100.00
5350;BME280;2697;42.144;24.794;2023-03-05T01:22:58;-17284.63;;;4.92;100.00
5350;BME280;2697;42.144;24.794;2023-03-05T01:25:25;-17945.31;;;4.88;100.00
5350;BME280;2697;42.144;24.794;2023-03-05T01:27:51;-18604.91;;;4.80;100.00
5350;BME280;2697;42.144;24.794;2023-03-05T01:30:17;-19266.66;;;4.81;100.00
5350;BME280;2697;42.144;24.794;2023-03-05T01:32:42;-19265.75;;;4.78;100.00
5350;BME280;2697;42.144;24.794;2023-03-05T01:35:10;-19266.19;;;4.73;100.00
5350;BME280;2697;42.144;24.794;2023-03-05T01:37:39;-19274.94;;;5.03;100.00
5350;BME280;2697;42.144;24.794;2023-03-05T01:40:05;-19280.19;;;5.21;100.00
5350;BME280;2697;42.144;24.794;2023-03-05T01:42:30;-19282.59;;;5.29;100.00
5350;BME280;2697;42.144;24.794;2023-03-05T01:45:06;-19288.78;;;5.50;100.00
5350;BME280;2697;42.144;24.794;2023-03-05T01:47:31;-19291.94;;;5.67;100.00
5350;BME280;2697;42.144;24.794;2023-03-05T01:49:57;-17967.50;;;5.68;100.00
5350;BME280;2697;42.144;24.794;2023-03-05T01:52:24;-16310.34;;;5.67;100.00
5350;BME280;2697;42.144;24.794;2023-03-05T01:54:52;-16643.44;;;5.73;100.00
5350;BME280;2697;42.144;24.794;2023-03-05T01:57:40;-15650.00;;;5.78;100.00
5350;BME280;2697;42.144;24.794;2023-03-05T02:00:09;-14986.06;;;5.74;100.00
5350;BME280;2697;42.144;24.794;2023-03-05T02:02:36;-14984.22;;;5.66;100.00
5350;BME280;2697;42.144;24.794;2023-03-05T02:05:04;-15645.53;;;5.59;100.00
5350;BME280;2697;42.144;24.794;2023-03-05T02:07:31;-17303.53;;;5.63;100.00
5350;BME280;2697;42.144;24.794;2023-03-05T02:09:58;-18295.34;;;5.56;100.00
5350;BME280;2697;42.144;24.794;2023-03-05T02:12:23;-18956.19;;;5.51;100.00
5350;BME280;2697;42.144;24.794;2023-03-05T02:14:50;-19290.88;;;5.57;100.00
5350;BME280;2697;42.144;24.794;2023-03-05T02:17:25;-19289.97;;;5.54;100.00
5350;BME280;2697;42.144;24.794;2023-03-05T02:19:53;-19289.81;;;5.53;100.00
5350;BME280;2697;42.144;24.794;2023-03-05T02:22:21;-19289.06;;;5.51;100.00
5350;BME280;2697;42.144;24.794;2023-03-05T02:24:47;-19287.56;;;5.46;100.00
5350;BME280;2697;42.144;24.794;2023-03-05T02:27:13;-19288.03;;;5.47;100.00
5350;BME280;2697;42.144;24.794;2023-03-05T02:29:44;-19290.44;;;5.55;100.00
5350;BME280;2697;42.144;24.794;2023-03-05T02:32:11;-19285.31;;;5.38;100.00
5350;BME280;2697;42.144;24.794;2023-03-05T02:34:37;-19278.38;;;5.14;100.00
5350;BME280;2697;42.144;24.794;2023-03-05T02:37:03;-19283.06;;;5.30;100.00
5350;BME280;2697;42.144;24.794;2023-03-05T02:39:30;-19288.03;;;5.47;100.00
5350;BME280;2697;42.144;24.794;2023-03-05T02:41:56;-18957.09;;;5.54;100.00
5350;BME280;2697;42.144;24.794;2023-03-05T02:44:21;-16304.44;;;5.43;100.00
5350;BME280;2697;42.144;24.794;2023-03-05T02:46:47;-15639.75;;;5.34;100.00
5350;BME280;2697;42.144;24.794;2023-03-05T02:49:12;-15636.75;;;5.22;100.00
5350;BME280;2697;42.144;24.794;2023-03-05T02:51:38;-16297.78;;;5.16;100.00
5350;BME280;2697;42.144;24.794;2023-03-05T02:54:03;-17291.59;;;5.18;100.00
5350;BME280;2697;42.144;24.794;2023-03-05T02:56:29;-17956.75;;;5.29;100.00
5350;BME280;2697;42.144;24.794;2023-03-05T02:58:54;-16956.06;;;5.01;100.00
5350;BME280;2697;42.144;24.794;2023-03-05T03:01:19;-17944.19;;;4.83;100.00
5350;BME280;2697;42.144;24.794;2023-03-05T03:03:45;-18931.81;;;4.67;100.00
5350;BME280;2697;42.144;24.794;2023-03-05T03:06:10;-19263.19;;;4.63;100.00
5350;BME280;2697;42.144;24.794;2023-03-05T03:08:35;-19262.13;;;4.60;100.00
5350;BME280;2697;42.144;24.794;2023-03-05T03:11:07;-19266.94;;;4.76;100.00
5350;BME280;2697;42.144;24.794;2023-03-05T03:13:32;-19264.09;;;4.66;100.00
5350;BME280;2697;42.144;24.794;2023-03-05T03:16:07;-19258.97;;;4.49;100.00
5350;BME280;2697;42.144;24.794;2023-03-05T03:18:32;-19257.31;;;4.43;100.00
5350;BME280;2697;42.144;24.794;2023-03-05T03:20:58;-19253.84;;;4.32;100.00
5350;BME280;2697;42.144;24.794;2023-03-05T03:23:24;-19253.09;;;4.29;100.00
5350;BME280;2697;42.144;24.794;2023-03-05T03:25:50;-19252.34;;;4.26;100.00
5350;BME280;2697;42.144;24.794;2023-03-05T03:28:15;-19250.25;;;4.19;100.00
5350;BME280;2697;42.144;24.794;2023-03-05T03:30:41;-19254.31;;;4.33;100.00
5350;BME280;2697;42.144;24.794;2023-03-05T03:33:06;-19254.16;;;4.33;100.00
5350;BME280;2697;42.144;24.794;2023-03-05T03:35:32;-19253.41;;;4.30;100.00
5350;BME280;2697;42.144;24.794;2023-03-05T03:37:57;-19253.56;;;4.31;100.00
5350;BME280;2697;42.144;24.794;2023-03-05T03:40:23;-19248.59;;;4.14;100.00
5350;BME280;2697;42.144;24.794;2023-03-05T03:42:53;-19247.06;;;4.09;100.00
5350;BME280;2697;42.144;24.794;2023-03-05T03:45:19;-19246.94;;;4.08;100.00
5350;BME280;2697;42.144;24.794;2023-03-05T03:47:50;-19243.91;;;3.98;100.00
5350;BME280;2697;42.144;24.794;2023-03-05T03:50:16;-19244.06;;;3.98;100.00
5350;BME280;2697;42.144;24.794;2023-03-05T03:52:42;-19250.38;;;4.20;100.00
5350;BME280;2697;42.144;24.794;2023-03-05T03:55:08;-18260.34;;;4.31;100.00
5350;BME280;2697;42.144;24.794;2023-03-05T03:57:33;-15615.44;;;4.32;100.00
5350;BME280;2697;42.144;24.794;2023-03-05T03:59:59;-13629.81;;;4.28;100.00
5350;BME280;2697;42.144;24.794;2023-03-05T04:02:25;-12308.03;;;4.40;100.00
5350;BME280;2697;42.144;24.794;2023-03-05T04:04:51;-10653.22;;;4.46;100.00
5350;BME280;2697;42.144;24.794;2023-03-05T04:07:16;-9991.84;;;4.54;100.00
5350;BME280;2697;42.144;24.794;2023-03-05T04:09:42;-9992.72;;;4.60;100.00
5350;BME280;2697;42.144;24.794;2023-03-05T04:12:07;-10321.72;;;4.44;100.00
5350;BME280;2697;42.144;24.794;2023-03-05T04:14:33;-11313.31;;;4.32;100.00
5350;BME280;2697;42.144;24.794;2023-03-05T04:16:58;-11973.31;;;4.19;100.00
5350;BME280;2697;42.144;24.794;2023-03-05T04:19:25;-12964.78;;;4.12;100.00
5350;BME280;2697;42.144;24.794;2023-03-05T04:21:50;-13625.66;;;4.08;100.00
5350;BME280;2697;42.144;24.794;2023-03-05T04:24:15;-14951.59;;;4.21;100.00
5350;BME280;2697;42.144;24.794;2023-03-05T04:26:41;-15280.91;;;4.15;100.00
5350;BME280;2697;42.144;24.794;2023-03-05T04:29:06;-16274.97;;;4.24;100.00
5350;BME280;2697;42.144;24.794;2023-03-05T04:31:32;-16935.56;;;4.21;100.00
5350;BME280;2697;42.144;24.794;2023-03-05T04:33:58;-16600.72;;;4.05;100.00
5350;BME280;2697;42.144;24.794;2023-03-05T04:36:23;-16927.94;;;3.92;100.00
5350;BME280;2697;42.144;24.794;2023-03-05T04:38:49;-17587.63;;;3.88;100.00
5350;BME280;2697;42.144;24.794;2023-03-05T04:41:14;-17254.19;;;3.76;100.00
5350;BME280;2697;42.144;24.794;2023-03-05T04:43:39;-17247.19;;;3.50;100.00
5350;BME280;2697;42.144;24.794;2023-03-05T04:46:05;-18565.88;;;3.43;100.00
5350;BME280;2697;42.144;24.794;2023-03-05T04:48:31;-19228.72;;;3.53;100.00
5350;BME280;2697;42.144;24.794;2023-03-05T04:50:57;-18895.16;;;3.41;100.00
5350;BME280;2697;42.144;24.794;2023-03-05T04:53:22;-18562.69;;;3.32;100.00
5350;BME280;2697;42.144;24.794;2023-03-05T04:55:52;-18559.66;;;3.22;100.00
5350;BME280;2697;42.144;24.794;2023-03-05T04:58:18;-18555.88;;;3.08;100.00
5350;BME280;2697;42.144;24.794;2023-03-05T05:00:44;-18886.13;;;3.10;100.00
5350;BME280;2697;42.144;24.794;2023-03-05T05:03:09;-19221.03;;;3.21;100.00
5350;BME280;2697;42.144;24.794;2023-03-05T05:05:34;-19224.63;;;3.33;100.00
5350;BME280;2697;42.144;24.794;2023-03-05T05:08:00;-19229.59;;;3.50;100.00
5350;BME280;2697;42.144;24.794;2023-03-05T05:10:26;-19240.00;;;3.85;100.00
5350;BME280;2697;42.144;24.794;2023-03-05T05:12:51;-19236.09;;;3.71;100.00
5350;BME280;2697;42.144;24.794;2023-03-05T05:15:17;-19237.00;;;3.75;100.00
5350;BME280;2697;42.144;24.794;2023-03-05T05:17:42;-19237.75;;;3.77;100.00
5350;BME280;2697;42.144;24.794;2023-03-05T05:20:10;-19237.44;;;3.76;100.00
5350;BME280;2697;42.144;24.794;2023-03-05T05:22:36;-19245.41;;;4.03;100.00
5350;BME280;2697;42.144;24.794;2023-03-05T05:25:02;-19251.00;;;4.22;100.00
5350;BME280;2697;42.144;24.794;2023-03-05T05:27:27;-19243.47;;;3.96;100.00
5350;BME280;2697;42.144;24.794;2023-03-05T05:29:53;-19249.03;;;4.15;100.00
5350;BME280;2697;42.144;24.794;2023-03-05T05:32:20;-19266.19;;;4.73;100.00
5350;BME280;2697;42.144;24.794;2023-03-05T05:34:47;-19256.88;;;4.42;100.00
5350;BME280;2697;42.144;24.794;2023-03-05T05:37:12;-19261.38;;;4.57;100.00
5350;BME280;2697;42.144;24.794;2023-03-05T05:39:38;-19269.50;;;4.84;100.00
5350;BME280;2697;42.144;24.794;2023-03-05T05:42:03;-19270.25;;;4.87;100.00
5350;BME280;2697;42.144;24.794;2023-03-05T05:44:29;-19266.94;;;4.76;100.00
5350;BME280;2697;42.144;24.794;2023-03-05T05:46:54;-19265.59;;;4.71;100.00
5350;BME280;2697;42.144;24.794;2023-03-05T05:49:20;-19266.19;;;4.73;100.00
5350;BME280;2697;42.144;24.794;2023-03-05T05:51:45;-19266.50;;;4.74;100.00
5350;BME280;2697;42.144;24.794;2023-03-05T05:54:12;-19265.28;;;4.70;100.00
5350;BME280;2697;42.144;24.794;2023-03-05T05:56:37;-19271.31;;;4.91;100.00
5350;BME280;2697;42.144;24.794;2023-03-05T05:59:03;-19272.66;;;4.95;100.00
5350;BME280;2697;42.144;24.794;2023-03-05T06:01:30;-19272.22;;;4.94;100.00
5350;BME280;2697;42.144;24.794;2023-03-05T06:03:56;-19274.63;;;5.02;100.00
5350;BME280;2697;42.144;24.794;2023-03-05T06:06:24;-19280.50;;;5.22;100.00
5350;BME280;2697;42.144;24.794;2023-03-05T06:08:50;-19282.44;;;5.28;100.00
5350;BME280;2697;42.144;24.794;2023-03-05T06:11:17;-19279.00;;;5.17;100.00
5350;BME280;2697;42.144;24.794;2023-03-05T06:13:43;-19280.03;;;5.20;100.00
5350;BME280;2697;42.144;24.794;2023-03-05T06:16:12;-19279.75;;;5.19;100.00
5350;BME280;2697;42.144;24.794;2023-03-05T06:18:38;-19284.72;;;5.36;100.00
5350;BME280;2697;42.144;24.794;2023-03-05T06:21:06;-19298.41;;;5.82;100.00
5350;BME280;2697;42.144;24.794;2023-03-05T06:23:33;-19308.50;;;6.16;100.00
5350;BME280;2697;42.144;24.794;2023-03-05T06:26:00;-19303.38;;;5.99;100.00
5350;BME280;2697;42.144;24.794;2023-03-05T06:28:26;-19299.19;;;5.91;100.00
5350;BME280;2697;42.144;24.794;2023-03-05T06:31:05;-18635.09;;;5.86;100.00
5350;BME280;2697;42.144;24.794;2023-03-05T06:33:32;-18306.59;;;5.96;100.00
5350;BME280;2697;42.144;24.794;2023-03-05T06:35:58;-16979.19;;;5.90;100.00
5350;BME280;2697;42.144;24.794;2023-03-05T06:38:24;-15652.16;;;5.87;100.00
5350;BME280;2697;42.144;24.794;2023-03-05T06:40:50;-14326.81;;;5.92;100.00
5350;BME280;2697;42.144;24.794;2023-03-05T06:43:16;-13000.44;;;5.96;100.00
5350;BME280;2697;42.144;24.794;2023-03-05T06:45:41;-11673.13;;;5.98;100.00
5350;BME280;2697;42.144;24.794;2023-03-05T06:48:06;-11009.06;;;5.98;100.00
5350;BME280;2697;42.144;24.794;2023-03-05T06:50:35;-11013.50;;;6.26;100.00
5350;BME280;2697;42.144;24.794;2023-03-05T06:53:01;-8685.28;;;6.09;100.00
5350;BME280;2697;42.144;24.794;2023-03-05T06:55:26;-9017.06;;;6.05;100.00
5350;BME280;2697;42.144;24.794;2023-03-05T06:57:52;-9682.06;;;6.09;100.00
5350;BME280;2697;42.144;24.794;2023-03-05T07:00:17;-11023.00;;;6.85;100.00
5350;BME280;2697;42.144;24.794;2023-03-05T07:02:43;-8368.75;;;7.43;100.00
5350;BME280;2697;42.144;24.794;2023-03-05T07:05:08;1972.00;;;7.83;100.00
5350;BME280;2697;42.144;24.794;2023-03-05T07:07:34;17372.06;;;7.75;100.00
5350;BME280;2697;42.144;24.794;2023-03-05T07:09:59;25086.56;;;7.54;100.00
5350;BME280;2697;42.144;24.794;2023-03-05T07:12:25;25779.19;;;8.01;100.00
5350;BME280;2697;42.144;24.794;2023-03-05T07:14:51;35895.00;;;8.22;100.00
5350;BME280;2697;42.144;24.794;2023-03-05T07:17:16;41623.59;;;8.08;100.00
5350;BME280;2697;42.144;24.794;2023-03-05T07:19:42;40600.81;;;7.94;100.00
5350;BME280;2697;42.144;24.794;2023-03-05T07:22:08;35543.38;;;7.98;100.00
5350;BME280;2697;42.144;24.794;2023-03-05T07:24:34;36556.22;;;8.00;100.00
5350;BME280;2697;42.144;24.794;2023-03-05T07:26:59;38590.81;;;8.17;100.00
5350;BME280;2697;42.144;24.794;2023-03-05T07:29:26;38940.38;;;8.35;100.00
5350;BME280;2697;42.144;24.794;2023-03-05T07:31:52;52134.66;;;8.40;100.00
5350;BME280;2697;42.144;24.794;2023-03-05T07:34:18;58950.56;;;8.74;100.00
5350;BME280;2697;42.144;24.794;2023-03-05T07:36:44;68154.63;;;8.96;100.00
5350;BME280;2697;42.144;24.794;2023-03-05T07:39:11;83530.63;;;9.14;100.00
5350;BME280;2697;42.144;24.794;2023-03-05T07:41:37;107545.31;;;9.20;100.00
5350;BME280;2697;42.144;24.794;2023-03-05T07:44:02;126171.41;;;9.25;100.00
5350;BME280;2697;42.144;24.794;2023-03-05T07:46:31;123450.72;;;9.46;100.00
5350;BME280;2697;42.144;24.794;2023-03-05T07:48:56;140205.97;;;10.06;100.00
5350;BME280;2697;42.144;24.794;2023-03-05T07:51:23;155218.88;;;10.28;100.00
5350;BME280;2697;42.144;24.794;2023-03-05T07:53:50;155383.50;;;10.92;100.00
5350;BME280;2697;42.144;24.794;2023-03-05T07:56:21;155525.78;;;11.47;100.00
5350;BME280;2697;42.144;24.794;2023-03-05T07:58:47;155570.59;;;11.64;100.00
5350;BME280;2697;42.144;24.794;2023-03-05T08:01:13;155583.72;;;11.69;100.00
5350;BME280;2697;42.144;24.794;2023-03-05T08:03:39;155574.53;;;11.66;100.00
5350;BME280;2697;42.144;24.794;2023-03-05T08:06:06;155639.13;;;11.91;100.00
5350;BME280;2697;42.144;24.794;2023-03-05T08:08:32;155678.69;;;12.06;100.00
5350;BME280;2697;42.144;24.794;2023-03-05T08:11:09;155863.31;;;12.77;100.00
5350;BME280;2697;42.144;24.794;2023-03-05T08:13:35;155945.09;;;13.09;100.00
5350;BME280;2697;42.144;24.794;2023-03-05T08:16:05;155833.00;;;12.66;100.00
5350;BME280;2697;42.144;24.794;2023-03-05T08:18:30;155839.59;;;12.68;100.00
5350;BME280;2697;42.144;24.794;2023-03-05T08:20:56;155891.03;;;12.88;100.00
5350;BME280;2697;42.144;24.794;2023-03-05T08:23:22;156025.63;;;13.40;100.00
5350;BME280;2697;42.144;24.794;2023-03-05T08:25:47;155984.75;;;13.24;100.00
5350;BME280;2697;42.144;24.794;2023-03-05T08:28:13;156062.59;;;13.54;100.00
5350;BME280;2697;42.144;24.794;2023-03-05T08:30:39;156102.22;;;13.69;95.83
5350;BME280;2697;42.144;24.794;2023-03-05T08:33:05;156056.00;;;13.52;92.19
5350;BME280;2697;42.144;24.794;2023-03-05T08:35:30;155868.59;;;12.79;96.79
5350;BME280;2697;42.144;24.794;2023-03-05T08:37:55;155822.44;;;12.62;97.29
5350;BME280;2697;42.144;24.794;2023-03-05T08:40:21;155793.41;;;12.50;100.00
5350;BME280;2697;42.144;24.794;2023-03-05T08:42:46;155806.59;;;12.55;95.64
5350;BME280;2697;42.144;24.794;2023-03-05T08:45:12;155900.25;;;12.92;96.50
5350;BME280;2697;42.144;24.794;2023-03-05T08:47:37;155872.53;;;12.81;98.01
5350;BME280;2697;42.144;24.794;2023-03-05T08:50:03;155900.25;;;12.92;96.65
5350;BME280;2697;42.144;24.794;2023-03-05T08:52:28;155979.47;;;13.22;93.00
5350;BME280;2697;42.144;24.794;2023-03-05T08:54:54;156032.25;;;13.43;92.83
5350;BME280;2697;42.144;24.794;2023-03-05T08:57:19;156001.91;;;13.31;95.27
5350;BME280;2697;42.144;24.794;2023-03-05T08:59:45;155988.69;;;13.26;93.79
5350;BME280;2697;42.144;24.794;2023-03-05T09:02:13;155987.38;;;13.25;94.27
5350;BME280;2697;42.144;24.794;2023-03-05T09:04:39;156038.84;;;13.45;92.71
5350;BME280;2697;42.144;24.794;2023-03-05T09:07:05;156108.81;;;13.72;88.39
5350;BME280;2697;42.144;24.794;2023-03-05T09:09:30;155976.81;;;13.21;94.31
5350;BME280;2697;42.144;24.794;2023-03-05T09:12:00;155986.06;;;13.25;91.36
5350;BME280;2697;42.144;24.794;2023-03-05T09:14:26;155943.78;;;13.08;94.41
5350;BME280;2697;42.144;24.794;2023-03-05T09:16:53;155904.19;;;12.93;92.21
5350;BME280;2697;42.144;24.794;2023-03-05T09:19:19;155966.22;;;13.17;91.73
5350;BME280;2697;42.144;24.794;2023-03-05T09:21:44;156007.19;;;13.33;90.16
5350;BME280;2697;42.144;24.794;2023-03-05T09:24:10;156071.81;;;13.58;86.56
5350;BME280;2697;42.144;24.794;2023-03-05T09:26:36;156063.91;;;13.55;87.41
5350;BME280;2697;42.144;24.794;2023-03-05T09:29:02;155889.69;;;12.88;89.25
5350;BME280;2697;42.144;24.794;2023-03-05T09:31:28;156037.53;;;13.45;85.80
5350;BME280;2697;42.144;24.794;2023-03-05T09:33:53;156111.44;;;13.73;84.88
5350;BME280;2697;42.144;24.794;2023-03-05T09:36:22;156074.50;;;13.59;86.43
5350;BME280;2697;42.144;24.794;2023-03-05T09:38:48;156243.50;;;14.24;84.23
5350;BME280;2697;42.144;24.794;2023-03-05T09:41:25;156151.06;;;13.88;85.95
5350;BME280;2697;42.144;24.794;2023-03-05T09:43:57;156180.09;;;14.00;82.61
5350;BME280;2697;42.144;24.794;2023-03-05T09:49:05;156180.09;;;14.00;77.43
5350;BME280;2697;42.144;24.794;2023-03-05T09:51:37;156087.69;;;13.64;80.82
5350;BME280;2697;42.144;24.794;2023-03-05T09:54:24;156155.00;;;13.90;79.50
5350;BME280;2697;42.144;24.794;2023-03-05T09:56:55;156169.50;;;13.95;81.52
5350;BME280;2697;42.144;24.794;2023-03-05T09:59:54;156252.72;;;14.27;81.15
5350;BME280;2697;42.144;24.794;2023-03-05T10:02:34;156503.75;;;15.24;73.79
5350;BME280;2697;42.144;24.794;2023-03-05T10:05:18;156413.91;;;14.90;72.76
5350;BME280;2697;42.144;24.794;2023-03-05T10:07:56;156457.47;;;15.06;72.81
5350;BME280;2697;42.144;24.794;2023-03-05T10:10:43;156317.50;;;14.52;73.20
5350;BME280;2697;42.144;24.794;2023-03-05T10:13:28;156281.75;;;14.39;75.56
5350;BME280;2697;42.144;24.794;2023-03-05T10:27:02;156194.59;;;14.05;78.11
5350;BME280;2697;42.144;24.794;2023-03-05T10:37:53;156308.22;;;14.49;73.47
5350;BME280;2697;42.144;24.794;2023-03-05T10:40:39;156383.50;;;14.78;72.18
5350;BME280;2697;42.144;24.794;2023-03-05T10:45:46;156494.50;;;15.21;69.52
5350;BME280;2697;42.144;24.794;2023-03-05T10:48:52;156346.53;;;14.64;70.54
5350;BME280;2697;42.144;24.794;2023-03-05T10:51:43;156322.75;;;14.54;73.32
5350;BME280;2697;42.144;24.794;2023-03-05T10:54:28;156372.97;;;14.74;72.02
5350;BME280;2697;42.144;24.794;2023-03-05T10:59:28;156304.25;;;14.47;70.07
5350;BME280;2697;42.144;24.794;2023-03-05T11:02:06;156318.81;;;14.53;70.49
5350;BME280;2697;42.144;24.794;2023-03-05T11:04:34;156388.81;;;14.80;68.78
5350;BME280;2697;42.144;24.794;2023-03-05T11:07:50;156409.91;;;14.88;66.94
5350;BME280;2697;42.144;24.794;2023-03-05T11:12:28;156372.97;;;14.74;69.38
5350;BME280;2697;42.144;24.794;2023-03-05T11:15:27;156365.03;;;14.71;66.65
5350;BME280;2697;42.144;24.794;2023-03-05T11:18:16;156428.44;;;14.95;65.81
5350;BME280;2697;42.144;24.794;2023-03-05T11:20:42;156383.50;;;14.78;66.72
5350;BME280;2697;42.144;24.794;2023-03-05T11:26:00;156548.69;;;15.42;66.59
5350;BME280;2697;42.144;24.794;2023-03-05T11:28:27;156539.44;;;15.38;64.71
5350;BME280;2697;42.144;24.794;2023-03-05T11:31:20;156454.84;;;15.05;64.59
5350;BME280;2697;42.144;24.794;2023-03-05T11:36:57;156515.66;;;15.29;64.02
5350;BME280;2697;42.144;24.794;2023-03-05T11:39:24;156513.03;;;15.28;64.77
5350;BME280;2697;42.144;24.794;2023-03-05T11:41:58;156684.91;;;15.94;62.25
5350;BME280;2697;42.144;24.794;2023-03-05T11:44:46;156793.31;;;16.36;59.22
5350;BME280;2697;42.144;24.794;2023-03-05T11:49:47;156846.22;;;16.56;58.05
5350;BME280;2697;42.144;24.794;2023-03-05T11:52:21;156817.13;;;16.45;56.79
5350;BME280;2697;42.144;24.794;2023-03-05T11:57:32;156856.84;;;16.60;56.76
5350;BME280;2697;42.144;24.794;2023-03-05T11:59:59;156896.59;;;16.75;56.34
5350;BME280;2697;42.144;24.794;2023-03-05T12:02:30;156780.13;;;16.31;57.52
5350;BME280;2697;42.144;24.794;2023-03-05T12:04:55;156822.41;;;16.47;57.94
5350;BME280;2697;42.144;24.794;2023-03-05T12:07:32;156929.66;;;16.88;56.62
5350;BME280;2697;42.144;24.794;2023-03-05T12:09:59;156965.34;;;17.02;55.75
5350;BME280;2697;42.144;24.794;2023-03-05T12:20:46;156769.53;;;16.27;55.97
5350;BME280;2697;42.144;24.794;2023-03-05T12:23:18;156822.41;;;16.47;55.58
5350;BME280;2697;42.144;24.794;2023-03-05T12:25:55;156819.78;;;16.46;55.91
5350;BME280;2697;42.144;24.794;2023-03-05T12:33:42;156706.06;;;16.02;55.83
5350;BME280;2697;42.144;24.794;2023-03-05T12:38:49;156729.88;;;16.11;56.45
5350;BME280;2697;42.144;24.794;2023-03-05T12:48:57;156530.16;;;15.34;70.00
5350;BME280;2697;42.144;24.794;2023-03-05T12:51:35;156498.47;;;15.22;72.18
5350;BME280;2697;42.144;24.794;2023-03-05T12:54:22;156491.88;;;15.20;73.14
5350;BME280;2697;42.144;24.794;2023-03-05T12:56:49;156341.28;;;14.62;75.45
5350;BME280;2697;42.144;24.794;2023-03-05T12:59:19;156172.19;;;13.96;82.36
5350;BME280;2697;42.144;24.794;2023-03-05T13:01:58;156288.34;;;14.41;82.28
5350;BME280;2697;42.144;24.794;2023-03-05T13:04:28;156199.91;;;14.07;80.76
5350;BME280;2697;42.144;24.794;2023-03-05T13:07:14;156209.13;;;14.11;82.13
5350;BME280;2697;42.144;24.794;2023-03-05T13:09:50;156223.66;;;14.16;80.31
5350;BME280;2697;42.144;24.794;2023-03-05T13:12:16;156157.63;;;13.91;82.60
5350;BME280;2697;42.144;24.794;2023-03-05T13:14:44;156206.50;;;14.10;79.28
5350;BME280;2697;42.144;24.794;2023-03-05T13:17:30;156184.03;;;14.01;79.48
5350;BME280;2697;42.144;24.794;2023-03-05T13:19:57;156174.81;;;13.97;77.78
5350;BME280;2697;42.144;24.794;2023-03-05T13:22:23;156132.56;;;13.81;80.26
5350;BME280;2697;42.144;24.794;2023-03-05T13:25:03;156322.75;;;14.54;77.38
5350;BME280;2697;42.144;24.794;2023-03-05T13:27:31;156312.16;;;14.50;78.38
5350;BME280;2697;42.144;24.794;2023-03-05T13:29:56;156240.81;;;14.23;79.67
5350;BME280;2697;42.144;24.794;2023-03-05T13:32:30;156235.53;;;14.21;80.70
5350;BME280;2697;42.144;24.794;2023-03-05T13:34:58;156195.94;;;14.06;79.96
5350;BME280;2697;42.144;24.794;2023-03-05T13:37:26;156279.13;;;14.38;77.39
5350;BME280;2697;42.144;24.794;2023-03-05T13:39:57;156223.66;;;14.16;80.89
5350;BME280;2697;42.144;24.794;2023-03-05T13:42:28;156244.81;;;14.24;82.71
5350;BME280;2697;42.144;24.794;2023-03-05T13:45:05;156247.44;;;14.25;79.95
5350;BME280;2697;42.144;24.794;2023-03-05T13:47:33;156386.13;;;14.79;78.09
5350;BME280;2697;42.144;24.794;2023-03-05T13:50:02;156486.59;;;15.18;75.71
5350;BME280;2697;42.144;24.794;2023-03-05T13:52:33;156462.81;;;15.08;76.26
5350;BME280;2697;42.144;24.794;2023-03-05T13:55:00;156548.69;;;15.42;74.75
5350;BME280;2697;42.144;24.794;2023-03-05T13:57:46;156494.50;;;15.21;75.90
5350;BME280;2697;42.144;24.794;2023-03-05T14:00:34;156557.97;;;15.45;74.39
5350;BME280;2697;42.144;24.794;2023-03-05T14:03:22;156526.22;;;15.33;73.51
5350;BME280;2697;42.144;24.794;2023-03-05T14:05:49;156439.03;;;14.99;76.92
5350;BME280;2697;42.144;24.794;2023-03-05T14:08:19;156473.38;;;15.13;74.91
5350;BME280;2697;42.144;24.794;2023-03-05T14:10:45;156328.03;;;14.57;76.12